createdAt,value
2023-01-26T00:02:24.178Z,10.15
2023-01-26T00:04:51.729Z,10.08
2023-01-26T00:07:18.942Z,10.08
2023-01-26T00:09:46.154Z,10.03
2023-01-26T00:12:13.649Z,10.00
2023-01-26T00:14:50.214Z,10.08
2023-01-26T00:17:25.933Z,10.03
2023-01-26T00:19:54.305Z,10.09
2023-01-26T00:22:21.852Z,10.09
2023-01-26T00:24:49.051Z,10.01
2023-01-26T00:27:16.278Z,9.92
2023-01-26T00:29:43.681Z,9.51
2023-01-26T00:32:10.896Z,9.60
2023-01-26T00:34:38.136Z,9.74
2023-01-26T00:37:05.537Z,9.84
2023-01-26T00:39:32.739Z,9.08
2023-01-26T00:42:07.090Z,9.59
2023-01-26T00:44:38.819Z,9.54
2023-01-26T00:47:06.386Z,9.45
2023-01-26T00:49:34.365Z,9.41
2023-01-26T00:52:01.937Z,9.73
2023-01-26T00:54:30.032Z,9.78
2023-01-26T00:56:57.257Z,9.73
2023-01-26T00:59:24.736Z,9.82
2023-01-26T01:01:52.293Z,9.73
2023-01-26T01:04:19.507Z,9.61
2023-01-26T01:06:46.954Z,9.70
2023-01-26T01:09:14.112Z,9.97
2023-01-26T01:11:42.907Z,9.96
2023-01-26T01:14:10.364Z,10.16
2023-01-26T01:16:38.229Z,10.15
2023-01-26T01:19:05.511Z,9.95
2023-01-26T01:21:33.091Z,10.01
2023-01-26T01:24:00.630Z,10.23
2023-01-26T01:26:27.859Z,10.21
2023-01-26T01:28:55.936Z,10.11
2023-01-26T01:31:23.255Z,10.25
2023-01-26T01:33:50.565Z,10.17
2023-01-26T01:36:19.190Z,10.25
2023-01-26T01:38:46.579Z,10.08
2023-01-26T01:41:14.705Z,10.11
2023-01-26T01:43:42.122Z,10.22
2023-01-26T01:46:17.699Z,10.23
2023-01-26T01:48:52.965Z,10.24
2023-01-26T01:51:21.973Z,10.20
2023-01-26T01:53:50.315Z,10.14
2023-01-26T01:56:21.606Z,10.15
2023-01-26T01:58:49.355Z,10.13
2023-01-26T02:01:16.855Z,10.14
2023-01-26T02:03:44.616Z,10.09
2023-01-26T02:06:15.215Z,9.83
2023-01-26T02:08:46.565Z,9.91
2023-01-26T02:11:15.126Z,9.93
2023-01-26T02:13:42.756Z,9.79
2023-01-26T02:16:10.328Z,9.98
2023-01-26T02:18:37.665Z,9.73
2023-01-26T02:21:07.009Z,10.04
2023-01-26T02:23:44.918Z,10.02
2023-01-26T02:26:14.565Z,10.05
2023-01-26T02:28:42.549Z,10.20
2023-01-26T02:31:10.364Z,10.15
2023-01-26T02:33:37.669Z,10.02
2023-01-26T02:36:05.810Z,9.93
2023-01-26T02:38:53.852Z,10.07
2023-01-26T02:41:40.127Z,10.19
2023-01-26T02:44:08.433Z,10.19
2023-01-26T02:46:35.926Z,10.14
2023-01-26T02:49:22.232Z,10.17
2023-01-26T02:51:49.669Z,10.12
2023-01-26T02:54:35.676Z,10.15
2023-01-26T02:57:03.253Z,9.82
2023-01-26T02:59:30.458Z,10.18
2023-01-26T03:01:57.864Z,10.18
2023-01-26T03:04:25.380Z,10.24
2023-01-26T03:06:52.591Z,10.33
2023-01-26T03:09:19.796Z,10.28
2023-01-26T03:11:47.627Z,10.39
2023-01-26T03:14:16.702Z,10.19
2023-01-26T03:16:43.903Z,10.35
2023-01-26T03:19:32.960Z,10.46
2023-01-26T03:22:18.754Z,10.30
2023-01-26T03:25:05.439Z,10.12
2023-01-26T03:27:38.618Z,10.12
2023-01-26T03:30:06.349Z,10.16
2023-01-26T03:32:33.641Z,10.43
2023-01-26T03:35:01.503Z,10.52
2023-01-26T03:37:34.557Z,10.34
2023-01-26T03:40:23.758Z,10.15
2023-01-26T03:43:09.920Z,10.35
2023-01-26T03:45:55.799Z,10.32
2023-01-26T03:48:42.299Z,10.26
2023-01-26T03:51:28.397Z,10.22
2023-01-26T03:54:15.360Z,10.08
2023-01-26T03:56:42.643Z,9.92
2023-01-26T03:59:11.111Z,9.79
2023-01-26T04:01:39.854Z,9.56
2023-01-26T04:04:27.161Z,9.65
2023-01-26T04:07:14.258Z,9.16
2023-01-26T04:09:42.163Z,9.54
2023-01-26T04:12:11.910Z,9.38
2023-01-26T04:14:58.407Z,9.38
2023-01-26T04:17:45.273Z,9.21
2023-01-26T04:20:32.102Z,9.23
2023-01-26T04:22:59.570Z,9.22
2023-01-26T04:25:27.690Z,9.40
2023-01-26T04:27:56.410Z,9.38
2023-01-26T04:30:24.011Z,9.58
2023-01-26T04:32:52.127Z,9.38
2023-01-26T04:35:19.313Z,9.66
2023-01-26T04:37:47.668Z,9.54
2023-01-26T04:40:15.057Z,9.39
2023-01-26T04:42:42.277Z,9.24
2023-01-26T04:45:10.448Z,9.22
2023-01-26T04:47:38.094Z,8.70
2023-01-26T04:50:05.463Z,9.47
2023-01-26T04:52:32.997Z,9.44
2023-01-26T04:55:00.351Z,9.87
2023-01-26T04:57:28.050Z,9.77
2023-01-26T04:59:55.608Z,9.81
2023-01-26T05:02:23.040Z,9.53
2023-01-26T05:04:50.361Z,9.53
2023-01-26T05:07:17.867Z,9.54
2023-01-26T05:09:45.299Z,9.22
2023-01-26T05:12:31.404Z,9.39
2023-01-26T05:15:01.025Z,9.56
2023-01-26T05:17:28.930Z,9.62
2023-01-26T05:19:56.408Z,9.70
2023-01-26T05:22:25.575Z,9.60
2023-01-26T05:24:55.850Z,9.72
2023-01-26T05:27:23.234Z,9.70
2023-01-26T05:29:51.471Z,9.39
2023-01-26T05:32:18.875Z,9.12
2023-01-26T05:34:46.291Z,9.52
2023-01-26T05:37:15.478Z,9.56
2023-01-26T05:39:42.808Z,9.65
2023-01-26T05:42:12.798Z,9.66
2023-01-26T05:44:40.404Z,9.80
2023-01-26T05:47:08.929Z,9.56
2023-01-26T05:49:38.747Z,9.70
2023-01-26T05:52:08.423Z,9.61
2023-01-26T05:54:35.631Z,9.72
2023-01-26T05:57:03.141Z,9.20
2023-01-26T05:59:31.560Z,9.63
2023-01-26T06:01:59.023Z,9.28
2023-01-26T06:04:26.913Z,9.74
2023-01-26T06:06:55.099Z,9.89
2023-01-26T06:09:22.656Z,9.29
2023-01-26T06:11:51.053Z,9.68
2023-01-26T06:14:19.575Z,9.53
2023-01-26T06:16:46.749Z,9.60
2023-01-26T06:19:14.573Z,9.78
2023-01-26T06:21:42.219Z,9.60
2023-01-26T06:24:09.532Z,9.72
2023-01-26T06:26:37.196Z,9.62
2023-01-26T06:29:04.742Z,9.65
2023-01-26T06:31:32.708Z,9.55
2023-01-26T06:34:00.493Z,9.40
2023-01-26T06:36:28.415Z,8.88
2023-01-26T06:38:57.128Z,9.13
2023-01-26T06:41:25.155Z,8.68
2023-01-26T06:43:52.332Z,9.43
2023-01-26T06:46:19.726Z,8.80
2023-01-26T06:48:47.343Z,9.21
2023-01-26T06:51:15.933Z,9.25
2023-01-26T06:53:43.796Z,9.22
2023-01-26T06:56:12.548Z,8.48
2023-01-26T06:58:42.167Z,9.15
2023-01-26T07:01:15.116Z,9.27
2023-01-26T07:03:42.675Z,9.20
2023-01-26T07:06:12.938Z,9.07
2023-01-26T07:08:40.360Z,9.21
2023-01-26T07:11:09.185Z,9.06
2023-01-26T07:13:36.578Z,9.57
2023-01-26T07:16:14.056Z,9.54
2023-01-26T07:18:41.601Z,9.44
2023-01-26T07:21:12.511Z,9.06
2023-01-26T07:23:39.642Z,9.52
2023-01-26T07:26:07.183Z,9.41
2023-01-26T07:28:34.561Z,8.96
2023-01-26T07:31:01.789Z,9.33
2023-01-26T07:33:29.525Z,9.35
2023-01-26T07:35:56.993Z,9.44
2023-01-26T07:38:24.217Z,9.65
2023-01-26T07:40:51.784Z,9.51
2023-01-26T07:43:19.179Z,8.88
2023-01-26T07:45:47.149Z,9.48
2023-01-26T07:48:15.616Z,8.78
2023-01-26T07:50:43.769Z,9.03
2023-01-26T07:53:12.905Z,9.25
2023-01-26T07:55:40.791Z,9.05
2023-01-26T07:58:08.116Z,9.57
2023-01-26T08:00:35.293Z,7.75
2023-01-26T08:03:02.771Z,8.76
2023-01-26T08:05:30.263Z,8.94
2023-01-26T08:07:58.661Z,9.12
2023-01-26T08:10:26.855Z,8.59
2023-01-26T08:12:54.044Z,9.35
2023-01-26T08:15:21.252Z,8.69
2023-01-26T08:17:48.691Z,9.01
2023-01-26T08:20:16.033Z,9.41
2023-01-26T08:22:43.305Z,9.46
2023-01-26T08:25:10.775Z,9.06
2023-01-26T08:27:38.331Z,9.61
2023-01-26T08:30:05.758Z,9.73
2023-01-26T08:32:33.368Z,9.50
2023-01-26T08:35:00.741Z,9.57
2023-01-26T08:37:28.011Z,8.55
2023-01-26T08:39:55.465Z,8.75
2023-01-26T08:42:22.956Z,8.92
2023-01-26T08:44:50.261Z,9.31
2023-01-26T08:47:18.119Z,9.64
2023-01-26T08:49:45.336Z,9.59
2023-01-26T08:52:12.558Z,9.74
2023-01-26T08:54:40.200Z,9.42
2023-01-26T08:57:07.459Z,9.02
2023-01-26T08:59:34.719Z,9.47
2023-01-26T09:02:02.359Z,9.08
2023-01-26T09:04:29.691Z,9.36
2023-01-26T09:06:56.903Z,8.85
2023-01-26T09:09:24.331Z,8.69
2023-01-26T09:11:51.534Z,8.96
2023-01-26T09:14:18.680Z,8.54
2023-01-26T09:16:46.183Z,8.73
2023-01-26T09:19:13.389Z,8.17
2023-01-26T09:21:40.598Z,8.70
2023-01-26T09:24:08.187Z,8.60
2023-01-26T09:26:35.429Z,8.12
2023-01-26T09:29:02.806Z,8.95
2023-01-26T09:31:30.490Z,8.43
2023-01-26T09:33:57.937Z,9.24
2023-01-26T09:36:25.991Z,8.90
2023-01-26T09:38:54.167Z,9.09
2023-01-26T09:41:33.375Z,9.43
2023-01-26T09:44:03.693Z,8.80
2023-01-26T09:46:37.109Z,8.63
2023-01-26T09:49:07.027Z,8.28
2023-01-26T09:51:34.230Z,8.97
2023-01-26T09:54:24.374Z,8.74
2023-01-26T09:56:51.930Z,8.87
2023-01-26T09:59:32.145Z,7.19
2023-01-26T10:02:01.681Z,7.72
2023-01-26T10:04:36.477Z,8.48
2023-01-26T10:07:05.531Z,8.84
2023-01-26T10:09:42.488Z,8.33
2023-01-26T10:12:21.023Z,8.39
2023-01-26T10:14:53.094Z,8.56
2023-01-26T10:17:22.232Z,7.69
2023-01-26T10:19:51.319Z,7.73
2023-01-26T10:22:20.987Z,7.81
2023-01-26T10:24:48.245Z,7.70
2023-01-26T10:27:15.901Z,7.31
2023-01-26T10:29:43.143Z,6.57
2023-01-26T10:32:12.906Z,5.97
2023-01-26T10:34:41.160Z,6.90
2023-01-26T10:37:31.393Z,7.16
2023-01-26T10:40:04.082Z,6.98
2023-01-26T10:42:32.334Z,7.09
2023-01-26T10:45:02.063Z,6.83
2023-01-26T10:47:29.365Z,7.42
2023-01-26T10:50:13.422Z,7.50
2023-01-26T10:52:48.606Z,7.76
2023-01-26T10:55:21.983Z,7.70
2023-01-26T10:57:49.607Z,7.11
2023-01-26T11:00:23.037Z,6.97
2023-01-26T11:02:51.579Z,7.26
2023-01-26T11:05:25.421Z,7.84
2023-01-26T11:08:00.387Z,7.96
2023-01-26T11:10:29.172Z,7.41
2023-01-26T11:13:22.414Z,7.54
2023-01-26T11:16:08.906Z,7.92
2023-01-26T11:18:54.581Z,7.60
2023-01-26T11:21:32.453Z,7.22
2023-01-26T11:24:17.933Z,7.74
2023-01-26T11:26:45.073Z,7.41
2023-01-26T11:29:18.399Z,7.77
2023-01-26T11:32:04.680Z,8.53
2023-01-26T11:34:50.143Z,8.45
2023-01-26T11:37:52.464Z,7.84
2023-01-26T11:40:32.561Z,8.04
2023-01-26T11:43:07.207Z,8.43
2023-01-26T11:45:40.573Z,7.36
2023-01-26T11:48:20.061Z,8.07
2023-01-26T11:50:56.500Z,7.99
2023-01-26T11:53:35.928Z,7.50
2023-01-26T11:56:03.372Z,7.37
2023-01-26T11:58:32.241Z,7.24
2023-01-26T12:01:00.219Z,7.42
2023-01-26T12:03:33.865Z,6.82
2023-01-26T12:06:02.858Z,7.73
2023-01-26T12:08:39.483Z,7.42
2023-01-26T12:11:25.708Z,7.37
2023-01-26T12:14:12.067Z,7.68
2023-01-26T12:16:39.220Z,7.90
2023-01-26T12:19:11.823Z,6.94
2023-01-26T12:21:40.234Z,7.38
2023-01-26T12:24:19.172Z,7.89
2023-01-26T12:26:55.615Z,7.78
2023-01-26T12:29:25.494Z,8.33
2023-01-26T12:32:00.453Z,8.28
2023-01-26T12:34:29.015Z,8.36
2023-01-26T12:37:15.342Z,8.24
2023-01-26T12:39:46.325Z,8.31
2023-01-26T12:42:16.533Z,8.13
2023-01-26T12:44:48.109Z,8.45
2023-01-26T12:47:28.556Z,7.92
2023-01-26T12:49:56.177Z,7.91
2023-01-26T12:52:23.326Z,8.42
2023-01-26T12:54:55.493Z,8.37
2023-01-26T12:57:23.778Z,8.57
2023-01-26T12:59:51.008Z,8.73
2023-01-26T13:02:24.429Z,9.09
2023-01-26T13:04:52.042Z,9.05
2023-01-26T13:07:26.990Z,8.81
2023-01-26T13:10:18.713Z,8.81
2023-01-26T13:12:45.980Z,8.78
2023-01-26T13:15:14.437Z,9.14
2023-01-26T13:17:46.772Z,9.21
2023-01-26T13:20:33.372Z,8.95
2023-01-26T13:23:00.697Z,8.75
2023-01-26T13:25:31.685Z,8.90
2023-01-26T13:27:59.842Z,7.45
2023-01-26T13:30:27.080Z,8.45
2023-01-26T13:33:02.295Z,8.78
2023-01-26T13:35:29.639Z,8.86
2023-01-26T13:38:20.375Z,9.13
2023-01-26T13:40:49.954Z,8.73
2023-01-26T13:43:26.725Z,7.89
2023-01-26T13:46:01.013Z,8.86
2023-01-26T13:48:34.958Z,8.82
2023-01-26T13:51:02.302Z,8.58
2023-01-26T13:53:33.039Z,8.87
2023-01-26T13:56:00.462Z,9.01
2023-01-26T13:58:27.804Z,9.05
2023-01-26T14:01:05.598Z,9.03
2023-01-26T14:03:33.088Z,8.76
2023-01-26T14:06:09.388Z,8.24
2023-01-26T14:08:36.922Z,8.49
2023-01-26T14:11:04.534Z,9.40
2023-01-26T14:13:33.566Z,9.56
2023-01-26T14:16:01.639Z,9.18
2023-01-26T14:18:28.902Z,9.26
2023-01-26T14:21:04.260Z,9.53
2023-01-26T14:23:37.508Z,9.26
2023-01-26T14:26:06.252Z,9.16
2023-01-26T14:28:34.835Z,9.33
2023-01-26T14:31:03.453Z,9.20
2023-01-26T14:33:30.883Z,9.26
2023-01-26T14:35:59.434Z,8.75
2023-01-26T14:38:28.874Z,8.84
2023-01-26T14:40:57.317Z,9.03
2023-01-26T14:43:24.881Z,9.22
2023-01-26T14:46:03.333Z,9.15
2023-01-26T14:48:34.967Z,8.75
2023-01-26T14:51:02.408Z,8.01
2023-01-26T14:53:29.575Z,8.56
2023-01-26T14:55:57.390Z,8.92
2023-01-26T14:58:29.930Z,7.46
2023-01-26T15:00:58.698Z,8.30
2023-01-26T15:03:29.861Z,7.69
2023-01-26T15:06:03.956Z,7.76
2023-01-26T15:08:31.635Z,7.02
2023-01-26T15:11:21.266Z,7.83
2023-01-26T15:13:52.131Z,8.10
2023-01-26T15:16:23.250Z,8.07
2023-01-26T15:19:00.682Z,8.41
2023-01-26T15:21:34.698Z,7.82
2023-01-26T15:24:03.109Z,8.31
2023-01-26T15:26:31.245Z,8.70
2023-01-26T15:28:59.137Z,8.92
2023-01-26T15:31:31.014Z,7.50
2023-01-26T15:34:04.115Z,8.65
2023-01-26T15:36:34.559Z,8.44
2023-01-26T15:39:03.578Z,8.69
2023-01-26T15:41:30.846Z,8.59
2023-01-26T15:43:58.424Z,8.50
2023-01-26T15:46:25.765Z,8.92
2023-01-26T15:48:52.947Z,8.70
2023-01-26T15:51:20.570Z,8.38
2023-01-26T15:53:47.998Z,7.68
2023-01-26T15:56:15.826Z,8.58
2023-01-26T15:58:43.340Z,8.27
2023-01-26T16:01:15.322Z,8.64
2023-01-26T16:03:43.032Z,8.43
2023-01-26T16:06:14.024Z,8.32
2023-01-26T16:08:41.201Z,7.86
2023-01-26T16:11:09.937Z,8.16
2023-01-26T16:13:37.189Z,7.95
2023-01-26T16:16:04.949Z,8.05
2023-01-26T16:18:32.408Z,7.79
2023-01-26T16:20:59.656Z,8.38
2023-01-26T16:23:28.564Z,8.49
2023-01-26T16:25:56.018Z,8.71
2023-01-26T16:28:23.273Z,8.69
2023-01-26T16:30:51.322Z,8.25
2023-01-26T16:33:21.251Z,8.77
2023-01-26T16:35:48.588Z,8.26
2023-01-26T16:38:15.766Z,8.40
2023-01-26T16:40:44.831Z,8.79
2023-01-26T16:43:14.242Z,8.74
2023-01-26T16:45:41.466Z,8.91
2023-01-26T16:48:11.307Z,8.59
2023-01-26T16:50:38.555Z,8.35
2023-01-26T16:53:15.061Z,8.99
2023-01-26T16:55:42.554Z,8.74
2023-01-26T16:58:09.783Z,9.17
2023-01-26T17:00:37.083Z,9.10
2023-01-26T17:03:04.959Z,8.53
2023-01-26T17:05:32.205Z,8.55
2023-01-26T17:07:59.532Z,8.90
2023-01-26T17:10:27.062Z,8.83
2023-01-26T17:12:54.298Z,8.62
2023-01-26T17:15:21.481Z,8.84
2023-01-26T17:17:49.331Z,8.42
2023-01-26T17:20:19.601Z,8.72
2023-01-26T17:22:47.606Z,8.73
2023-01-26T17:25:17.051Z,9.13
2023-01-26T17:27:45.248Z,8.89
2023-01-26T17:30:12.477Z,9.18
2023-01-26T17:32:39.932Z,9.10
2023-01-26T17:35:07.282Z,9.33
2023-01-26T17:37:35.657Z,9.49
2023-01-26T17:40:03.453Z,9.50
2023-01-26T17:42:32.962Z,9.45
2023-01-26T17:45:00.803Z,9.60
2023-01-26T17:47:28.302Z,9.41
2023-01-26T17:49:55.691Z,9.22
2023-01-26T17:52:23.005Z,9.72
2023-01-26T17:54:50.452Z,9.72
2023-01-26T17:57:17.813Z,9.89
2023-01-26T17:59:45.026Z,9.33
2023-01-26T18:02:12.684Z,9.49
2023-01-26T18:04:40.228Z,9.45
2023-01-26T18:07:07.529Z,9.59
2023-01-26T18:09:34.670Z,9.79
2023-01-26T18:12:02.148Z,9.75
2023-01-26T18:14:30.103Z,9.57
2023-01-26T18:16:57.264Z,9.54
2023-01-26T18:19:25.026Z,8.57
2023-01-26T18:21:52.331Z,9.14
2023-01-26T18:24:19.640Z,9.26
2023-01-26T18:26:47.155Z,9.53
2023-01-26T18:29:15.043Z,9.61
2023-01-26T18:31:43.376Z,9.32
2023-01-26T18:34:11.191Z,9.57
2023-01-26T18:36:38.440Z,9.74
2023-01-26T18:39:07.153Z,9.51
2023-01-26T18:41:35.281Z,9.39
2023-01-26T18:44:03.777Z,9.25
2023-01-26T18:46:31.377Z,9.54
2023-01-26T18:49:03.681Z,9.56
2023-01-26T18:51:34.847Z,8.40
2023-01-26T18:54:04.021Z,8.23
2023-01-26T18:56:32.147Z,8.89
2023-01-26T18:58:59.686Z,9.16
2023-01-26T19:01:27.457Z,9.30
2023-01-26T19:03:55.713Z,9.44
2023-01-26T19:06:23.582Z,9.60
2023-01-26T19:08:59.414Z,9.68
2023-01-26T19:11:30.855Z,9.52
2023-01-26T19:13:58.805Z,9.75
2023-01-26T19:16:26.068Z,9.84
2023-01-26T19:18:55.431Z,9.78
2023-01-26T19:21:24.745Z,9.75
2023-01-26T19:23:52.763Z,9.82
2023-01-26T19:26:21.322Z,9.71
2023-01-26T19:28:50.744Z,9.94
2023-01-26T19:31:19.379Z,9.95
2023-01-26T19:33:50.614Z,9.96
2023-01-26T19:36:18.495Z,9.86
2023-01-26T19:38:46.186Z,9.85
2023-01-26T19:41:13.842Z,9.60
2023-01-26T19:43:41.938Z,9.88
2023-01-26T19:46:11.740Z,9.62
2023-01-26T19:48:39.226Z,9.95
2023-01-26T19:51:13.905Z,9.80
2023-01-26T19:53:42.344Z,9.72
2023-01-26T19:56:14.281Z,9.83
2023-01-26T19:58:41.516Z,10.00
2023-01-26T20:01:10.133Z,10.03
2023-01-26T20:03:37.947Z,10.18
2023-01-26T20:06:05.716Z,10.17
2023-01-26T20:08:33.202Z,9.88
2023-01-26T20:11:04.658Z,9.87
2023-01-26T20:13:32.466Z,9.83
2023-01-26T20:15:59.790Z,9.91
2023-01-26T20:18:27.651Z,9.98
2023-01-26T20:20:55.956Z,9.08
2023-01-26T20:23:23.837Z,8.82
2023-01-26T20:25:54.583Z,9.44
2023-01-26T20:28:21.931Z,9.66
2023-01-26T20:30:49.376Z,9.69
2023-01-26T20:33:17.140Z,9.81
2023-01-26T20:35:44.400Z,9.84
2023-01-26T20:38:11.877Z,9.89
2023-01-26T20:40:39.933Z,9.84
2023-01-26T20:43:07.304Z,9.89
2023-01-26T20:45:34.700Z,9.69
2023-01-26T20:48:02.402Z,9.73
2023-01-26T20:50:35.779Z,9.80
2023-01-26T20:53:03.409Z,9.47
2023-01-26T20:55:30.659Z,9.65
2023-01-26T20:57:57.824Z,9.60
2023-01-26T21:00:25.294Z,9.50
2023-01-26T21:02:52.491Z,9.62
2023-01-26T21:05:20.140Z,9.53
2023-01-26T21:07:47.698Z,9.55
2023-01-26T21:10:15.242Z,9.40
2023-01-26T21:12:42.361Z,9.60
2023-01-26T21:15:10.164Z,9.65
2023-01-26T21:17:37.525Z,9.60
2023-01-26T21:20:05.002Z,9.76
2023-01-26T21:22:32.563Z,9.59
2023-01-26T21:24:59.745Z,9.73
2023-01-26T21:27:26.962Z,9.74
2023-01-26T21:29:54.419Z,9.57
2023-01-26T21:32:21.593Z,9.56
2023-01-26T21:34:48.824Z,9.65
2023-01-26T21:37:16.441Z,9.61
2023-01-26T21:39:43.680Z,9.54
2023-01-26T21:42:10.860Z,9.53
2023-01-26T21:44:58.261Z,9.65
2023-01-26T21:47:25.505Z,9.66
2023-01-26T21:49:53.832Z,9.55
2023-01-26T21:52:39.768Z,9.48
2023-01-26T21:55:07.559Z,9.36
2023-01-26T21:57:53.235Z,9.46
2023-01-26T22:00:20.800Z,9.27
2023-01-26T22:02:48.356Z,9.50
2023-01-26T22:05:16.733Z,9.55
2023-01-26T22:07:43.915Z,9.43
2023-01-26T22:10:12.135Z,9.11
2023-01-26T22:12:39.573Z,9.40
2023-01-26T22:15:07.091Z,9.46
2023-01-26T22:17:34.669Z,9.45
2023-01-26T22:20:02.302Z,9.48
2023-01-26T22:22:29.803Z,9.40
2023-01-26T22:24:57.750Z,9.48
2023-01-26T22:27:24.973Z,9.51
2023-01-26T22:29:52.236Z,9.26
2023-01-26T22:32:19.725Z,9.40
2023-01-26T22:34:46.898Z,9.35
2023-01-26T22:37:14.067Z,9.46
2023-01-26T22:39:41.591Z,9.13
2023-01-26T22:42:08.764Z,9.08
2023-01-26T22:44:36.578Z,9.06
2023-01-26T22:47:04.813Z,9.02
2023-01-26T22:49:31.960Z,9.29
2023-01-26T22:51:59.103Z,9.33
2023-01-26T22:54:27.762Z,9.27
2023-01-26T22:56:54.979Z,9.14
2023-01-26T22:59:22.173Z,9.31
2023-01-26T23:01:49.647Z,9.29
2023-01-26T23:04:16.890Z,9.30
2023-01-26T23:06:44.046Z,9.32
2023-01-26T23:09:11.567Z,9.08
2023-01-26T23:11:38.758Z,9.30
2023-01-26T23:14:06.072Z,9.22
2023-01-26T23:16:33.615Z,9.18
2023-01-26T23:19:00.841Z,9.21
2023-01-26T23:21:28.389Z,9.29
2023-01-26T23:23:55.938Z,9.39
2023-01-26T23:26:23.117Z,9.41
2023-01-26T23:28:50.364Z,9.55
2023-01-26T23:31:18.125Z,9.60
2023-01-26T23:33:45.652Z,9.28
2023-01-26T23:36:13.103Z,9.29
2023-01-26T23:38:40.756Z,9.28
2023-01-26T23:41:11.898Z,9.37
2023-01-26T23:43:39.175Z,9.51
2023-01-26T23:46:06.927Z,9.45
2023-01-26T23:48:34.104Z,9.35
2023-01-26T23:51:02.117Z,9.17
2023-01-26T23:53:30.700Z,9.30
2023-01-26T23:55:58.940Z,9.27
2023-01-26T23:58:26.113Z,9.31
